Time;durP1;ratioP1;P1;durP2;ratioP2;P2;SDS_P1;SDS_P2;PMS_P1;PMS_P2;Temp;Humidity;BMP_temperature;BMP_pressure;BME280_temperature;BME280_humidity;BME280_pressure;Samples;Min_cycle;Max_cycle;Signal;HPM_P1;HPM_P2
2022/12/10 00:01:50;;;;;;;1999.90;999.90;;;1.00;99.90;;;;;;4938295;29;20111;-76
2022/12/10 00:04:15;;;;;;;1999.90;999.90;;;1.00;99.90;;;;;;4938146;28;20546;-75
2022/12/10 00:06:42;;;;;;;1999.90;999.90;;;1.00;99.90;;;;;;4938282;29;20060;-75
2022/12/10 00:09:14;;;;;;;1999.90;999.90;;;1.00;99.90;;;;;;4938439;28;20491;-75
2022/12/10 00:11:40;;;;;;;1999.90;999.90;;;1.00;99.90;;;;;;4938203;28;20482;-76
2022/12/10 00:14:09;;;;;;;1999.90;999.90;;;1.10;99.90;;;;;;4938379;28;20036;-75
2022/12/10 00:16:35;;;;;;;1999.90;999.90;;;1.00;99.90;;;;;;4938236;28;20491;-75
2022/12/10 00:19:01;;;;;;;1999.90;999.90;;;1.10;99.90;;;;;;4938211;29;20550;-75
2022/12/10 00:21:30;;;;;;;1999.90;999.90;;;1.00;99.90;;;;;;4937568;29;20032;-75
2022/12/10 00:23:56;;;;;;;1999.90;999.90;;;1.10;99.90;;;;;;4938210;28;20092;-77
2022/12/10 00:26:25;;;;;;;1999.90;999.90;;;1.10;99.90;;;;;;4941129;29;20502;-75
2022/12/10 00:28:51;;;;;;;1999.90;999.90;;;1.10;99.90;;;;;;4941129;29;20088;-76
2022/12/10 05:01:56;;;;;;;1999.90;999.90;;;0.80;99.90;;;;;;5271082;23;20416;-76
2022/12/10 05:04:22;;;;;;;1999.90;999.90;;;0.80;99.90;;;;;;4975970;28;20079;-76
2022/12/10 05:06:49;;;;;;;1999.90;999.90;;;0.80;99.90;;;;;;4975958;28;20034;-76
2022/12/10 05:09:14;;;;;;;1999.90;999.90;;;0.80;99.90;;;;;;4975958;28;20420;-76
2022/12/10 05:11:40;;;;;;;1999.90;999.90;;;0.80;99.90;;;;;;4975380;28;20039;-76
2022/12/10 05:16:34;;;;;;;1999.90;999.90;;;0.90;99.90;;;;;;4973072;28;20531;-74
2022/12/10 05:19:00;;;;;;;1999.90;999.90;;;0.90;99.90;;;;;;4975865;28;20437;-74
2022/12/10 05:24:13;;;;;;;1999.90;999.90;;;0.90;99.90;;;;;;4975092;28;20932;-74
2022/12/10 05:26:38;;;;;;;1999.90;999.90;;;0.90;99.90;;;;;;4974259;28;20042;-74
2022/12/10 05:29:04;;;;;;;1999.90;999.90;;;0.90;99.90;;;;;;4975526;28;20493;-74
2022/12/10 05:31:30;;;;;;;1999.90;999.90;;;1.00;99.90;;;;;;4975186;28;20031;-74
2022/12/10 05:33:57;;;;;;;1999.90;999.90;;;1.00;99.90;;;;;;4975400;28;20493;-74
2022/12/10 05:36:25;;;;;;;1999.90;999.90;;;1.00;99.90;;;;;;4975506;28;20028;-74
2022/12/10 05:38:52;;;;;;;1999.90;999.90;;;0.90;99.90;;;;;;4975529;28;20046;-75
2022/12/10 05:41:20;;;;;;;1999.90;999.90;;;1.00;99.90;;;;;;4975039;28;20039;-74
2022/12/10 05:43:47;;;;;;;1999.90;999.90;;;0.90;99.90;;;;;;4975346;28;20501;-74
2022/12/10 05:46:17;;;;;;;1999.90;999.90;;;1.00;99.90;;;;;;4974052;28;20035;-74
2022/12/10 05:48:43;;;;;;;1999.90;999.90;;;1.00;99.90;;;;;;4975119;28;20043;-74
2022/12/10 05:53:47;;;;;;;1999.90;999.90;;;1.00;99.90;;;;;;5144876;22;20051;-74
2022/12/10 05:56:15;;;;;;;1999.90;999.90;;;1.00;99.90;;;;;;4994646;28;20485;-75
2022/12/10 05:58:42;;;;;;;1999.90;999.90;;;1.00;99.90;;;;;;4994664;28;20523;-74
2022/12/10 06:01:11;;;;;;;1999.90;999.90;;;1.00;99.90;;;;;;4994680;28;20066;-76
2022/12/10 06:03:37;;;;;;;1999.90;999.90;;;1.00;99.90;;;;;;4993247;28;20110;-76
2022/12/10 06:06:03;;;;;;;1999.90;999.90;;;1.00;99.90;;;;;;5017228;22;20051;-76
2022/12/10 06:08:29;;;;;;;1999.90;999.90;;;1.00;99.90;;;;;;4994522;28;20049;-75
2022/12/10 06:10:57;;;;;;;1999.90;999.90;;;0.90;99.90;;;;;;4993070;28;20090;-75
2022/12/10 06:13:23;;;;;;;1999.90;999.90;;;0.90;99.90;;;;;;4994376;28;20054;-75
2022/12/10 06:15:48;;;;;;;1999.90;999.90;;;0.90;99.90;;;;;;4994135;28;20483;-75
2022/12/10 06:18:14;;;;;;;1999.90;999.90;;;0.90;99.90;;;;;;4994755;28;20039;-75
2022/12/10 06:20:39;;;;;;;1999.90;999.90;;;0.90;99.90;;;;;;4994422;28;20472;-75
2022/12/10 06:23:05;;;;;;;1999.90;999.90;;;0.90;99.90;;;;;;4994718;28;20043;-75
2022/12/10 06:25:31;;;;;;;1999.90;999.90;;;1.00;99.90;;;;;;4993100;28;20465;-77
2022/12/10 06:27:57;;;;;;;1999.90;999.90;;;0.90;99.90;;;;;;4994672;28;20488;-77
2022/12/10 06:30:22;;;;;;;1999.90;999.90;;;0.90;99.90;;;;;;4994705;28;20047;-77
2022/12/10 06:32:48;;;;;;;1999.90;999.90;;;0.90;99.90;;;;;;4994433;28;20046;-77
2022/12/10 06:35:13;;;;;;;1999.90;999.90;;;0.90;99.90;;;;;;4994514;28;20039;-77
2022/12/10 06:37:39;;;;;;;1999.90;999.90;;;0.90;99.90;;;;;;4992837;28;20074;-76
2022/12/10 06:40:05;;;;;;;1999.90;999.90;;;0.90;99.90;;;;;;4995579;28;20039;-76
2022/12/10 06:42:31;;;;;;;1999.90;999.90;;;0.90;99.90;;;;;;4999024;28;20039;-76
2022/12/10 06:44:56;;;;;;;1999.90;999.90;;;1.00;99.90;;;;;;4994901;28;20031;-76
2022/12/10 06:47:22;;;;;;;1999.90;999.90;;;1.10;99.90;;;;;;4992989;28;20038;-76
2022/12/10 06:49:48;;;;;;;1999.90;999.90;;;1.10;99.90;;;;;;4993649;28;20031;-77
2022/12/10 06:52:14;;;;;;;1999.90;999.90;;;1.10;99.90;;;;;;4994640;28;20093;-77
2022/12/10 06:54:39;;;;;;;1999.90;999.90;;;1.10;99.90;;;;;;4996017;28;20464;-77
2022/12/10 06:57:05;;;;;;;1999.90;999.90;;;1.10;99.90;;;;;;4997523;28;20122;-77
2022/12/10 06:59:30;;;;;;;1999.90;999.90;;;1.10;99.90;;;;;;4997363;28;20027;-74
2022/12/10 07:01:56;;;;;;;1999.90;999.90;;;1.10;99.90;;;;;;4997326;28;20062;-75
2022/12/10 07:04:22;;;;;;;1999.90;999.90;;;1.10;99.90;;;;;;4997165;28;20090;-75
2022/12/10 07:06:47;;;;;;;1999.90;999.90;;;1.00;99.90;;;;;;4997246;28;20042;-75
2022/12/10 07:09:13;;;;;;;1999.90;999.90;;;1.10;99.90;;;;;;4997134;28;20043;-75
2022/12/10 07:11:38;;;;;;;1999.90;999.90;;;1.10;99.90;;;;;;4996884;28;20062;-75
2022/12/10 07:14:04;;;;;;;1999.90;999.90;;;1.10;99.90;;;;;;4995538;28;20035;-75
2022/12/10 07:16:31;;;;;;;1999.90;999.90;;;1.10;99.90;;;;;;4997126;28;20041;-75
2022/12/10 07:18:59;;;;;;;1999.90;999.90;;;1.00;99.90;;;;;;4995673;28;20046;-75
2022/12/10 07:21:33;;;;;;;1999.90;999.90;;;1.00;99.90;;;;;;4996613;28;20419;-75
2022/12/10 07:24:02;;;;;;;1999.90;999.90;;;1.00;99.90;;;;;;4997023;28;20042;-75
2022/12/10 07:26:30;;;;;;;1999.90;999.90;;;1.00;99.90;;;;;;4997068;28;20039;-75
2022/12/10 07:28:56;;;;;;;1999.90;999.90;;;1.00;99.90;;;;;;4996978;28;20030;-75
2022/12/10 07:31:21;;;;;;;1999.90;999.90;;;1.00;99.90;;;;;;4996509;28;20465;-75
2022/12/10 07:33:51;;;;;;;1999.90;999.90;;;1.00;99.90;;;;;;4995257;28;20047;-75
2022/12/10 07:36:18;;;;;;;1999.90;999.90;;;1.00;99.90;;;;;;4996658;28;20035;-76
2022/12/10 07:38:43;;;;;;;1999.90;999.90;;;1.00;99.90;;;;;;4997125;28;20034;-76
2022/12/10 07:41:11;;;;;;;1999.90;999.90;;;1.00;99.90;;;;;;4995750;28;20421;-75
2022/12/10 07:43:41;;;;;;;1999.90;999.90;;;1.10;99.90;;;;;;4997037;28;20401;-76
2022/12/10 07:46:13;;;;;;;1999.90;999.90;;;1.10;99.90;;;;;;5007752;28;20088;-75
2022/12/10 07:48:39;;;;;;;1999.90;999.90;;;1.10;99.90;;;;;;5016610;28;20035;-75
2022/12/10 07:51:05;;;;;;;1999.90;999.90;;;1.10;99.90;;;;;;5016570;28;20041;-75
2022/12/10 07:53:31;;;;;;;1999.90;999.90;;;1.10;99.90;;;;;;5014707;28;20061;-75
2022/12/10 07:55:57;;;;;;;1999.90;999.90;;;1.20;99.90;;;;;;5016303;28;20034;-75
2022/12/10 07:58:22;;;;;;;1999.90;999.90;;;1.20;99.90;;;;;;5015003;28;20042;-76
2022/12/10 08:00:48;;;;;;;1999.90;999.90;;;1.30;99.90;;;;;;5016269;28;20564;-75
2022/12/10 08:03:14;;;;;;;1999.90;999.90;;;1.30;99.90;;;;;;5016591;28;20040;-75
2022/12/10 08:05:39;;;;;;;1999.90;999.90;;;1.30;99.90;;;;;;5015890;28;20038;-76
2022/12/10 08:08:05;;;;;;;1999.90;999.90;;;1.30;99.90;;;;;;5016378;28;20138;-75
2022/12/10 08:10:34;;;;;;;1999.90;999.90;;;1.40;99.90;;;;;;5016937;28;20105;-76
2022/12/10 08:12:59;;;;;;;1999.90;999.90;;;1.40;99.90;;;;;;5015991;28;20071;-76
2022/12/10 08:15:25;;;;;;;1999.90;999.90;;;1.40;99.90;;;;;;5016130;28;20089;-75
2022/12/10 08:17:51;;;;;;;1999.90;999.90;;;1.60;99.90;;;;;;5015422;28;20045;-76
2022/12/10 08:20:16;;;;;;;1999.90;999.90;;;1.60;99.90;;;;;;5015702;28;20042;-76
2022/12/10 08:22:42;;;;;;;1999.90;999.90;;;1.60;99.90;;;;;;5015123;28;20046;-76
2022/12/10 08:25:07;;;;;;;1999.90;999.90;;;1.70;99.90;;;;;;5017641;28;20039;-77
2022/12/10 08:27:33;;;;;;;1999.90;999.90;;;1.80;99.90;;;;;;5017619;28;20058;-75
2022/12/10 08:29:58;;;;;;;1999.90;999.90;;;1.80;99.90;;;;;;5015565;28;20110;-75
2022/12/10 08:32:24;;;;;;;1999.90;999.90;;;1.90;99.90;;;;;;5015893;28;20048;-76
2022/12/10 08:34:49;;;;;;;1999.90;999.90;;;1.90;99.90;;;;;;5015481;28;20361;-76
2022/12/10 08:37:15;;;;;;;1999.90;999.90;;;1.90;99.90;;;;;;5016605;28;20072;-76
2022/12/10 08:39:41;;;;;;;1999.90;999.90;;;2.00;99.90;;;;;;5015682;28;20494;-75
2022/12/10 08:42:06;;;;;;;1999.90;999.90;;;2.00;99.90;;;;;;5015709;28;20072;-77
2022/12/10 08:44:32;;;;;;;1999.90;999.90;;;2.10;99.90;;;;;;5015416;28;20034;-80
2022/12/10 08:46:57;;;;;;;1999.90;999.90;;;2.20;99.90;;;;;;5016278;28;20070;-75
2022/12/10 08:49:23;;;;;;;1999.90;999.90;;;2.20;99.90;;;;;;5015433;28;20034;-75
2022/12/10 08:51:48;;;;;;;1999.90;999.90;;;2.30;99.90;;;;;;5015667;28;20514;-77
2022/12/10 08:54:14;;;;;;;1999.90;999.90;;;2.20;99.90;;;;;;5015841;28;20096;-75
2022/12/10 08:56:39;;;;;;;1999.90;999.90;;;2.30;99.90;;;;;;5013823;28;20026;-75
2022/12/10 08:59:06;;;;;;;1999.90;999.90;;;2.40;99.90;;;;;;5015130;28;20053;-75
2022/12/10 09:01:32;;;;;;;1999.90;999.90;;;2.40;99.90;;;;;;5013559;28;20030;-75
2022/12/10 09:03:58;;;;;;;1999.90;999.90;;;2.40;99.90;;;;;;5013557;28;20066;-75
2022/12/10 09:06:24;;;;;;;1999.90;999.90;;;2.40;99.90;;;;;;5013450;28;20034;-76
2022/12/10 09:08:50;;;;;;;1999.90;999.90;;;2.40;99.90;;;;;;5018823;28;20039;-81
2022/12/10 09:11:23;;;;;;;1999.90;999.90;;;2.40;99.90;;;;;;5017863;28;20027;-79
2022/12/10 09:13:49;;;;;;;1999.90;999.90;;;2.30;99.90;;;;;;5016593;28;20122;-76
2022/12/10 09:16:15;;;;;;;1999.90;999.90;;;2.30;99.90;;;;;;5015289;28;20031;-78
2022/12/10 09:18:41;;;;;;;1999.90;999.90;;;2.20;99.90;;;;;;5016553;28;20038;-79
2022/12/10 09:21:12;;;;;;;1999.90;999.90;;;2.40;99.90;;;;;;5019517;28;20034;-78
2022/12/10 09:23:38;;;;;;;1999.90;999.90;;;2.50;99.90;;;;;;5019587;28;20050;-78
2022/12/10 09:26:12;;;;;;;1999.90;999.90;;;2.50;99.90;;;;;;5019981;28;20460;-79
2022/12/10 09:28:38;;;;;;;1999.90;999.90;;;2.40;99.90;;;;;;5006561;28;20079;-80
2022/12/10 09:31:06;;;;;;;1999.90;999.90;;;2.40;99.90;;;;;;4991025;28;20183;-77
2022/12/10 09:33:32;;;;;;;1999.90;999.90;;;2.40;99.90;;;;;;5000434;28;20102;-78
2022/12/10 09:35:57;;;;;;;1999.90;999.90;;;2.50;99.90;;;;;;4991998;28;20046;-77
2022/12/10 09:38:23;;;;;;;1999.90;999.90;;;2.70;99.90;;;;;;5009731;28;20037;-78
2022/12/10 09:41:30;;;;;;;1999.90;999.90;;;2.80;99.90;;;;;;4992008;28;20044;-78
2022/12/10 09:44:03;;;;;;;1999.90;999.90;;;2.80;99.90;;;;;;4973676;28;20051;-78
2022/12/10 09:46:41;;;;;;;1999.90;999.90;;;2.90;99.90;;;;;;4991748;28;20027;-79
2022/12/10 09:49:21;;;;;;;1999.90;999.90;;;2.80;99.90;;;;;;4981984;28;20035;-77
2022/12/10 09:51:47;;;;;;;1999.90;999.90;;;2.90;99.90;;;;;;4992423;28;20477;-78
2022/12/10 09:54:22;;;;;;;1999.90;999.90;;;2.80;99.90;;;;;;4991244;28;20046;-78
2022/12/10 09:56:50;;;;;;;1999.90;999.90;;;3.00;99.90;;;;;;4994038;28;20034;-78
2022/12/10 09:59:18;;;;;;;1999.90;999.90;;;3.20;99.90;;;;;;4995220;28;20095;-77
2022/12/10 10:01:45;;;;;;;1999.90;999.90;;;3.10;99.90;;;;;;4983966;28;20896;-76
2022/12/10 10:04:11;;;;;;;1999.90;999.90;;;3.00;99.90;;;;;;4987523;28;20038;-79
2022/12/10 10:06:37;;;;;;;1999.90;999.90;;;3.00;99.90;;;;;;4995039;28;20043;-80
2022/12/10 10:09:06;;;;;;;1999.90;999.90;;;3.10;99.90;;;;;;4984926;28;20058;-78
2022/12/10 10:11:33;;;;;;;1999.90;999.90;;;3.10;99.90;;;;;;4988529;28;20038;-77
2022/12/10 10:14:05;;;;;;;1999.90;999.90;;;3.30;99.90;;;;;;4987255;28;20509;-79
2022/12/10 10:16:36;;;;;;;1999.90;999.90;;;3.00;99.90;;;;;;4988673;28;20042;-79
2022/12/10 10:19:14;;;;;;;1999.90;999.90;;;3.20;99.90;;;;;;4984502;28;20118;-80
2022/12/10 10:21:42;;;;;;;1999.90;999.90;;;3.30;99.90;;;;;;4987867;28;20031;-80
2022/12/10 10:24:15;;;;;;;1999.90;999.90;;;3.30;99.90;;;;;;4988058;28;20038;-79
2022/12/10 10:26:40;;;;;;;1999.90;999.90;;;3.30;99.90;;;;;;4983788;28;20057;-81
2022/12/10 10:29:09;;;;;;;1999.90;999.90;;;3.40;99.90;;;;;;4988787;28;20541;-82
2022/12/10 10:31:39;;;;;;;1999.90;999.90;;;3.50;99.90;;;;;;4998519;28;20579;-77
2022/12/10 10:34:12;;;;;;;1999.90;999.90;;;3.50;99.90;;;;;;4989615;28;20533;-77
2022/12/10 10:36:39;;;;;;;1999.90;999.90;;;3.50;99.90;;;;;;4997466;28;20043;-80
2022/12/10 10:39:18;;;;;;;1999.90;999.90;;;3.40;99.90;;;;;;4981851;28;20042;-77
2022/12/10 10:41:53;;;;;;;1999.90;999.90;;;3.50;99.90;;;;;;4984236;28;20500;-78
2022/12/10 10:44:21;;;;;;;1999.90;999.90;;;3.60;99.90;;;;;;4997100;28;20035;-78
2022/12/10 10:46:49;;;;;;;1999.90;999.90;;;3.60;99.90;;;;;;4998346;28;20142;-79
2022/12/10 10:49:26;;;;;;;1999.90;999.90;;;3.50;99.90;;;;;;4996710;28;20027;-77
2022/12/10 10:51:54;;;;;;;1999.90;999.90;;;3.50;99.90;;;;;;4998023;28;20118;-76
2022/12/10 10:54:38;;;;;;;1999.90;999.90;;;3.30;99.90;;;;;;4996110;28;20050;-76
2022/12/10 10:57:11;;;;;;;1999.90;999.90;;;3.30;99.90;;;;;;4996066;28;20460;-77
2022/12/10 10:59:38;;;;;;;1999.90;999.90;;;3.20;99.90;;;;;;4982939;28;20092;-76
2022/12/10 11:02:22;;;;;;;1999.90;999.90;;;3.30;99.90;;;;;;4987390;28;20844;-76
2022/12/10 11:04:54;;;;;;;1999.90;999.90;;;3.40;99.90;;;;;;4987708;28;20053;-76
2022/12/10 11:07:33;;;;;;;1999.90;999.90;;;3.50;99.90;;;;;;4981310;28;20468;-77
2022/12/10 11:09:59;;;;;;;1999.90;999.90;;;3.60;99.90;;;;;;4975897;28;20523;-76
2022/12/10 11:12:35;;;;;;;1999.90;999.90;;;3.70;99.90;;;;;;4982394;28;20074;-75
2022/12/10 11:15:01;;;;;;;1999.90;999.90;;;3.70;99.90;;;;;;4990809;28;20453;-75
2022/12/10 11:17:28;;;;;;;1999.90;999.90;;;3.70;99.90;;;;;;4992451;28;20882;-76
2022/12/10 11:19:53;;;;;;;1999.90;999.90;;;3.70;99.90;;;;;;4995922;28;20038;-76
2022/12/10 11:22:33;;;;;;;1999.90;999.90;;;3.80;99.90;;;;;;4996780;28;20039;-76
2022/12/10 11:25:00;;;;;;;1999.90;999.90;;;3.80;99.90;;;;;;4980874;28;20042;-75
2022/12/10 11:27:47;;;;;;;1999.90;999.90;;;3.90;99.90;;;;;;4993942;28;20035;-75
2022/12/10 11:30:23;;;;;;;1999.90;999.90;;;3.90;99.90;;;;;;4976361;28;20039;-77
2022/12/10 11:33:20;;;;;;;1999.90;999.90;;;4.00;99.90;;;;;;4979038;28;20536;-77
2022/12/10 11:35:48;;;;;;;1999.90;999.90;;;4.00;99.90;;;;;;4985467;28;20050;-75
2022/12/10 11:38:26;;;;;;;1999.90;999.90;;;3.70;99.90;;;;;;4981178;28;20031;-75
2022/12/10 11:41:05;;;;;;;1999.90;999.90;;;3.90;99.90;;;;;;4981464;28;20405;-75
2022/12/10 11:43:57;;;;;;;1999.90;999.90;;;3.80;99.90;;;;;;4977288;28;20831;-75
2022/12/10 11:46:49;;;;;;;1999.90;999.90;;;3.90;99.90;;;;;;4987744;28;20468;-75
2022/12/10 11:49:47;;;;;;;1999.90;999.90;;;3.90;99.90;;;;;;4997656;28;20073;-76
2022/12/10 11:52:25;;;;;;;1999.90;999.90;;;3.90;99.90;;;;;;4975235;28;20406;-77
2022/12/10 11:55:19;;;;;;;1999.90;999.90;;;3.90;99.90;;;;;;4977154;28;20474;-75
2022/12/10 11:58:08;;;;;;;1999.90;999.90;;;3.80;99.90;;;;;;4977562;28;20043;-75
2022/12/10 12:00:58;;;;;;;1999.90;999.90;;;3.60;99.90;;;;;;4976917;28;20082;-76
2022/12/10 12:03:42;;;;;;;1999.90;999.90;;;3.50;99.90;;;;;;4975791;28;20031;-75
2022/12/10 12:06:32;;;;;;;1999.90;999.90;;;3.40;99.90;;;;;;4977283;28;20454;-76
2022/12/10 12:09:15;;;;;;;1999.90;999.90;;;3.40;99.90;;;;;;4977300;28;20035;-75
2022/12/10 12:11:43;;;;;;;1999.90;999.90;;;3.40;99.90;;;;;;4975237;28;20524;-75
2022/12/10 12:14:34;;;;;;;1999.90;999.90;;;3.50;99.90;;;;;;4975081;28;20501;-76
2022/12/10 12:17:18;;;;;;;1999.90;999.90;;;3.60;99.90;;;;;;4976708;28;20039;-76
2022/12/10 12:19:53;;;;;;;1999.90;999.90;;;3.70;99.90;;;;;;4976794;28;20050;-76
2022/12/10 12:22:29;;;;;;;1999.90;999.90;;;3.80;99.90;;;;;;4975255;28;20448;-76
2022/12/10 12:25:47;;;;;;;1999.90;999.90;;;4.00;99.90;;;;;;4976652;28;20482;-76
2022/12/10 12:28:16;;;;;;;1999.90;999.90;;;3.90;99.90;;;;;;4964128;28;20501;-75
2022/12/10 12:30:46;;;;;;;1999.90;999.90;;;3.70;99.90;;;;;;4975193;28;20123;-76
2022/12/10 12:33:17;;;;;;;1999.90;999.90;;;3.70;99.90;;;;;;4976415;28;20043;-76
2022/12/10 12:35:48;;;;;;;1999.90;999.90;;;3.60;99.90;;;;;;4976164;28;20057;-76
2022/12/10 12:38:26;;;;;;;1999.90;999.90;;;3.80;99.90;;;;;;4976610;28;20510;-76
2022/12/10 12:41:00;;;;;;;1999.90;999.90;;;3.90;99.90;;;;;;4974527;28;20568;-76
2022/12/10 12:43:51;;;;;;;1999.90;999.90;;;3.70;99.90;;;;;;4976555;28;20073;-76
2022/12/10 12:46:30;;;;;;;1999.90;999.90;;;3.70;99.90;;;;;;4990008;28;20421;-75
2022/12/10 12:49:21;;;;;;;1999.90;999.90;;;3.80;99.90;;;;;;4976399;28;20046;-76
2022/12/10 12:51:56;;;;;;;1999.90;999.90;;;3.70;99.90;;;;;;4989547;28;20118;-75
2022/12/10 12:54:22;;;;;;;1999.90;999.90;;;3.80;99.90;;;;;;4995285;28;20147;-75
2022/12/10 12:57:04;;;;;;;1999.90;999.90;;;3.70;99.90;;;;;;4977192;28;20119;-76
2022/12/10 12:59:53;;;;;;;1999.90;999.90;;;3.80;99.90;;;;;;4978641;28;20039;-76
2022/12/10 13:02:40;;;;;;;1999.90;999.90;;;3.80;99.90;;;;;;4974809;28;20035;-76
2022/12/10 13:05:13;;;;;;;1999.90;999.90;;;3.70;99.90;;;;;;4994658;28;20043;-75
2022/12/10 13:07:39;;;;;;;1999.90;999.90;;;3.70;99.90;;;;;;4995529;28;20035;-76
2022/12/10 13:10:23;;;;;;;1999.90;999.90;;;3.50;99.90;;;;;;4995589;28;20034;-75
2022/12/10 13:13:04;;;;;;;1999.90;999.90;;;3.60;99.90;;;;;;4994475;28;20440;-75
2022/12/10 13:15:36;;;;;;;1999.90;999.90;;;3.50;99.90;;;;;;4993576;28;20105;-75
2022/12/10 13:18:18;;;;;;;1999.90;999.90;;;3.50;99.90;;;;;;4995296;28;20034;-75
2022/12/10 13:21:01;;;;;;;1999.90;999.90;;;3.60;99.90;;;;;;4995070;28;20031;-75
2022/12/10 13:23:33;;;;;;;1999.90;999.90;;;3.50;99.90;;;;;;4995337;28;20080;-76
2022/12/10 13:26:00;;;;;;;1999.90;999.90;;;3.50;99.90;;;;;;4994824;28;20034;-76
2022/12/10 13:28:26;;;;;;;1999.90;999.90;;;3.50;99.90;;;;;;4995068;28;20034;-75
2022/12/10 13:31:16;;;;;;;1999.90;999.90;;;3.50;99.90;;;;;;4988896;28;20039;-78
2022/12/10 13:34:02;;;;;;;1999.90;999.90;;;3.30;99.90;;;;;;4975220;28;20592;-78
2022/12/10 13:36:57;;;;;;;1999.90;999.90;;;3.30;99.90;;;;;;4963053;28;20043;-76
2022/12/10 13:39:33;;;;;;;1999.90;999.90;;;3.40;99.90;;;;;;4972182;28;20043;-77
2022/12/10 13:45:21;;;;;;;1999.90;999.90;;;3.40;99.90;;;;;;4985399;28;20035;-80
2022/12/10 13:48:15;;;;;;;1999.90;999.90;;;3.40;99.90;;;;;;4987918;28;20047;-77
2022/12/10 13:50:50;;;;;;;1999.90;999.90;;;3.30;99.90;;;;;;4983970;28;20043;-78
2022/12/10 13:53:22;;;;;;;1999.90;999.90;;;3.40;99.90;;;;;;4980652;28;20045;-78
2022/12/10 13:56:24;;;;;;;1999.90;999.90;;;3.40;99.90;;;;;;4993492;28;20086;-78
2022/12/10 13:59:10;;;;;;;1999.90;999.90;;;3.30;99.90;;;;;;4982632;28;20039;-76
2022/12/10 14:01:54;;;;;;;1999.90;999.90;;;3.20;99.90;;;;;;4984970;28;20543;-77
2022/12/10 14:05:00;;;;;;;1999.90;999.90;;;3.20;99.90;;;;;;4992738;28;20146;-76
2022/12/10 14:07:27;;;;;;;1999.90;999.90;;;3.00;99.90;;;;;;4982579;28;20085;-77
2022/12/10 14:09:55;;;;;;;1999.90;999.90;;;3.00;99.90;;;;;;4990526;28;20106;-77
2022/12/10 14:12:37;;;;;;;1999.90;999.90;;;3.00;99.90;;;;;;4997938;28;20122;-77
2022/12/10 14:15:14;;;;;;;1999.90;999.90;;;2.90;99.90;;;;;;4996447;28;20038;-77
2022/12/10 14:17:43;;;;;;;1999.90;999.90;;;2.90;99.90;;;;;;4997917;28;20039;-76
2022/12/10 14:20:16;;;;;;;1999.90;999.90;;;2.90;99.90;;;;;;4997506;28;20038;-77
2022/12/10 14:22:47;;;;;;;1999.90;999.90;;;2.90;99.90;;;;;;4996665;28;20109;-78
2022/12/10 14:25:17;;;;;;;1999.90;999.90;;;2.90;99.90;;;;;;4997735;28;20489;-77
2022/12/10 14:27:46;;;;;;;1999.90;999.90;;;2.90;99.90;;;;;;4997729;28;20571;-76
2022/12/10 14:30:20;;;;;;;1999.90;999.90;;;2.80;99.90;;;;;;4997764;28;20023;-77
2022/12/10 14:32:47;;;;;;;1999.90;999.90;;;2.80;99.90;;;;;;4998244;28;20563;-79
2022/12/10 14:35:22;;;;;;;1999.90;999.90;;;2.70;99.90;;;;;;4997139;28;20058;-77
2022/12/10 14:37:50;;;;;;;1999.90;999.90;;;2.60;99.90;;;;;;4997631;28;20097;-77
2022/12/10 14:40:39;;;;;;;1999.90;999.90;;;2.40;99.90;;;;;;4997639;28;20035;-77
2022/12/10 14:43:21;;;;;;;1999.90;999.90;;;2.40;99.90;;;;;;4996021;28;20146;-77
2022/12/10 14:45:59;;;;;;;1999.90;999.90;;;2.30;99.90;;;;;;4997701;28;20027;-76
2022/12/10 14:48:25;;;;;;;1999.90;999.90;;;2.20;99.90;;;;;;4996112;28;20049;-77
2022/12/10 14:50:51;;;;;;;1999.90;999.90;;;2.20;99.90;;;;;;4995869;28;20031;-77
2022/12/10 14:53:24;;;;;;;1999.90;999.90;;;2.00;99.90;;;;;;4995854;28;20038;-76
2022/12/10 14:55:53;;;;;;;1999.90;999.90;;;1.90;99.90;;;;;;4997605;28;20031;-77
2022/12/10 14:58:35;;;;;;;1999.90;999.90;;;1.80;99.90;;;;;;4997214;28;20050;-77
2022/12/10 15:01:01;;;;;;;1999.90;999.90;;;1.80;99.90;;;;;;4997485;28;20027;-77
2022/12/10 15:03:31;;;;;;;1999.90;999.90;;;1.70;99.90;;;;;;4995944;28;20038;-77
2022/12/10 15:06:00;;;;;;;1999.90;999.90;;;1.70;99.90;;;;;;4996798;28;20595;-79
2022/12/10 15:08:26;;;;;;;1999.90;999.90;;;1.60;99.90;;;;;;4995929;28;20041;-77
2022/12/10 15:10:56;;;;;;;1999.90;999.90;;;1.50;99.90;;;;;;4996708;28;20043;-77
2022/12/10 15:13:32;;;;;;;1999.90;999.90;;;1.40;99.90;;;;;;4995029;28;20088;-77
2022/12/10 15:15:58;;;;;;;1999.90;999.90;;;1.30;99.90;;;;;;4997239;28;20113;-77
2022/12/10 15:18:37;;;;;;;1999.90;999.90;;;1.20;99.90;;;;;;4997109;28;20041;-77
2022/12/10 15:21:07;;;;;;;1999.90;999.90;;;1.10;99.90;;;;;;4996444;28;20519;-77
2022/12/10 15:23:35;;;;;;;1999.90;999.90;;;1.00;99.90;;;;;;4995913;28;20038;-76
2022/12/10 15:26:09;;;;;;;1999.90;999.90;;;0.90;99.90;;;;;;4997821;28;20580;-82
2022/12/10 15:28:40;;;;;;;1999.90;999.90;;;0.90;99.90;;;;;;4996996;28;20047;-81
2022/12/10 15:31:24;;;;;;;1999.90;999.90;;;0.80;99.90;;;;;;4996640;28;20086;-77
2022/12/10 15:34:17;;;;;;;1999.90;999.90;;;0.80;99.90;;;;;;4995017;28;20046;-77
2022/12/10 15:36:50;;;;;;;1999.90;999.90;;;0.70;99.90;;;;;;4993461;28;20198;-77
2022/12/10 15:39:20;;;;;;;1999.90;999.90;;;0.70;99.90;;;;;;4996860;28;20524;-77
2022/12/10 15:41:52;;;;;;;1999.90;999.90;;;0.70;99.90;;;;;;4995961;28;20489;-77
2022/12/10 15:44:37;;;;;;;1999.90;999.90;;;0.60;99.90;;;;;;4997582;28;20516;-77
2022/12/10 15:47:12;;;;;;;1999.90;999.90;;;0.60;99.90;;;;;;5000998;28;20034;-78
2022/12/10 15:49:37;;;;;;;1999.90;999.90;;;0.50;99.90;;;;;;4997359;28;20061;-77
2022/12/10 15:52:03;;;;;;;1999.90;999.90;;;0.50;99.90;;;;;;4996931;28;20046;-80
2022/12/10 15:54:32;;;;;;;1999.90;999.90;;;0.50;99.90;;;;;;4996732;28;20038;-75
2022/12/10 15:56:58;;;;;;;1999.90;999.90;;;0.50;99.90;;;;;;4996851;28;20030;-81
2022/12/10 15:59:24;;;;;;;1999.90;999.90;;;0.60;99.90;;;;;;4996898;28;20495;-77
2022/12/10 16:01:50;;;;;;;1999.90;999.90;;;0.50;99.90;;;;;;4996211;28;20047;-77
2022/12/10 16:04:16;;;;;;;1999.90;999.90;;;0.50;99.90;;;;;;4996038;28;20551;-77
2022/12/10 16:06:42;;;;;;;1999.90;999.90;;;0.50;99.90;;;;;;4996534;28;20045;-77
2022/12/10 16:09:09;;;;;;;1999.90;999.90;;;0.50;99.90;;;;;;5012815;28;20015;-83
2022/12/10 16:11:35;;;;;;;1999.90;999.90;;;0.50;99.90;;;;;;5021243;28;20035;-75
2022/12/10 16:14:02;;;;;;;1999.90;999.90;;;0.40;99.90;;;;;;5003434;28;20451;-74
2022/12/10 16:16:27;;;;;;;1999.90;999.90;;;0.30;99.90;;;;;;4996300;28;20027;-75
2022/12/10 16:18:53;;;;;;;1999.90;999.90;;;0.30;99.90;;;;;;4996137;28;20039;-75
2022/12/10 16:21:19;;;;;;;1999.90;999.90;;;0.20;99.90;;;;;;4996173;28;20038;-74
2022/12/10 16:23:44;;;;;;;1999.90;999.90;;;0.20;99.90;;;;;;4995984;28;20473;-74
2022/12/10 16:26:20;;;;;;;1999.90;999.90;;;0.10;99.90;;;;;;4993595;28;20389;-74
2022/12/10 16:28:46;;;;;;;1999.90;999.90;;;0.00;99.90;;;;;;4990112;28;20047;-77
2022/12/10 16:31:16;;;;;;;1999.90;999.90;;;0.00;99.90;;;;;;4986319;28;20131;-75
2022/12/10 16:33:42;;;;;;;1999.90;999.90;;;-0.10;99.90;;;;;;4986114;28;20525;-75
2022/12/10 16:36:12;;;;;;;1999.90;999.90;;;-0.10;99.90;;;;;;4995870;28;20031;-76
2022/12/10 16:38:39;;;;;;;1999.90;999.90;;;-0.10;99.90;;;;;;4994457;28;20039;-76
2022/12/10 16:41:15;;;;;;;1999.90;999.90;;;-0.10;99.90;;;;;;4994465;28;20125;-77
2022/12/10 16:43:40;;;;;;;1999.90;999.90;;;-0.10;99.90;;;;;;4996180;28;20078;-78
2022/12/10 16:46:09;;;;;;;1999.90;999.90;;;-0.10;99.90;;;;;;4995843;28;20509;-77
2022/12/10 16:48:34;;;;;;;1999.90;999.90;;;-0.20;99.90;;;;;;4995745;28;20039;-76
2022/12/10 16:51:00;;;;;;;1999.90;999.90;;;-0.20;99.90;;;;;;4995397;28;20035;-77
2022/12/10 16:53:28;;;;;;;1999.90;999.90;;;-0.10;99.90;;;;;;4996393;28;20038;-79
2022/12/10 16:55:55;;;;;;;1999.90;999.90;;;-0.10;99.90;;;;;;4996526;28;20038;-80
2022/12/10 16:58:22;;;;;;;1999.90;999.90;;;-0.10;99.90;;;;;;4996639;28;20126;-79
2022/12/10 17:00:49;;;;;;;1999.90;999.90;;;-0.10;99.90;;;;;;4996551;28;20492;-79
2022/12/10 17:03:23;;;;;;;1999.90;999.90;;;-0.20;99.90;;;;;;4996287;28;20122;-79
2022/12/10 17:05:50;;;;;;;1999.90;999.90;;;-0.20;99.90;;;;;;4997317;28;20042;-81
2022/12/10 17:08:17;;;;;;;1999.90;999.90;;;-0.20;99.90;;;;;;5007304;28;20038;-80
2022/12/10 17:13:29;;;;;;;1999.90;999.90;;;-0.30;99.90;;;;;;5004038;28;20043;-80